Time;durP1;ratioP1;P1;durP2;ratioP2;P2;SDS_P1;SDS_P2;PMS_P1;PMS_P2;Temp;Humidity;BMP_temperature;BMP_pressure;BME280_temperature;BME280_humidity;BME280_pressure;Samples;Min_cycle;Max_cycle;Signal;HPM_P1;HPM_P2
2021/12/26 00:00:44;;;;;;;13.88;4.07;;;28.40;92.70;;;;;;5120814;27;20377;-89
2021/12/26 00:03:12;;;;;;;11.98;3.90;;;28.60;91.80;;;;;;5127228;27;20880;-88
2021/12/26 00:05:39;;;;;;;10.68;4.00;;;28.80;91.80;;;;;;5127408;27;20486;-88
2021/12/26 00:08:07;;;;;;;9.82;3.55;;;29.30;91.40;;;;;;5128272;27;20373;-90
2021/12/26 00:10:35;;;;;;;10.25;3.72;;;30.00;90.00;;;;;;5135763;27;20879;-89
2021/12/26 00:13:02;;;;;;;10.68;3.60;;;30.40;86.20;;;;;;5134368;27;20361;-91
2021/12/26 00:15:29;;;;;;;13.60;4.20;;;30.40;85.50;;;;;;5127945;27;20399;-94
2021/12/26 00:17:57;;;;;;;14.13;4.13;;;30.30;86.20;;;;;;5129139;27;20498;-95
2021/12/26 00:20:24;;;;;;;12.13;4.10;;;29.90;86.20;;;;;;5126686;27;20408;-83
2021/12/26 00:22:51;;;;;;;11.98;3.90;;;29.60;88.20;;;;;;5127915;27;20368;-92
2021/12/26 00:25:18;;;;;;;9.80;4.05;;;29.50;88.20;;;;;;5109177;28;20389;-90
2021/12/26 00:27:45;;;;;;;14.70;4.00;;;29.30;88.40;;;;;;5127576;27;20373;-92
2021/12/26 00:30:18;;;;;;;10.68;3.85;;;29.40;90.40;;;;;;5127547;27;20412;-93
2021/12/26 00:32:46;;;;;;;10.00;3.92;;;29.50;89.90;;;;;;5127750;27;20366;-93
2021/12/26 00:35:15;;;;;;;12.13;4.10;;;29.70;88.70;;;;;;5127818;27;20467;-91
2021/12/26 00:37:43;;;;;;;13.40;3.93;;;30.10;85.80;;;;;;5130329;28;20369;-92
2021/12/26 00:40:12;;;;;;;9.15;3.63;;;30.00;85.60;;;;;;5127733;28;20424;-93
2021/12/26 00:42:40;;;;;;;8.77;3.30;;;29.90;86.20;;;;;;5127956;27;20791;-90
2021/12/26 00:45:08;;;;;;;11.00;3.50;;;30.00;84.80;;;;;;5107185;28;20367;-92
2021/12/26 00:47:35;;;;;;;11.90;3.77;;;30.30;83.90;;;;;;5114441;28;20376;-92
2021/12/26 00:50:06;;;;;;;8.80;3.50;;;30.40;83.70;;;;;;5127780;28;20384;-91
2021/12/26 00:52:33;;;;;;;11.20;3.60;;;30.70;82.50;;;;;;5128073;27;20361;-91
2021/12/26 00:55:01;;;;;;;9.50;3.47;;;31.00;81.30;;;;;;5128764;27;20369;-89
2021/12/26 00:57:28;;;;;;;11.57;3.50;;;31.30;79.70;;;;;;5127434;28;20353;-91
2021/12/26 00:59:55;;;;;;;11.13;3.30;;;31.80;79.10;;;;;;5127029;27;20449;-90
2021/12/26 01:02:22;;;;;;;8.38;3.38;;;32.10;76.30;;;;;;5127268;28;20423;-91
2021/12/26 01:04:49;;;;;;;13.05;4.07;;;32.30;76.40;;;;;;5127144;27;20468;-90
2021/12/26 01:07:33;;;;;;;11.63;3.90;;;32.20;72.20;;;;;;5127503;27;20849;-91
2021/12/26 01:10:00;;;;;;;9.98;3.42;;;32.10;72.70;;;;;;5127198;28;20365;-90
2021/12/26 01:12:29;;;;;;;10.88;3.28;;;32.10;73.10;;;;;;5127430;27;20369;-92
2021/12/26 01:15:03;;;;;;;8.83;3.07;;;32.20;72.60;;;;;;5127019;28;20369;-91
2021/12/26 01:17:30;;;;;;;9.30;3.20;;;32.70;69.70;;;;;;5127295;28;20377;-92
2021/12/26 01:19:58;;;;;;;8.65;3.00;;;32.80;68.80;;;;;;5127556;28;20404;-91
2021/12/26 01:22:26;;;;;;;8.55;3.10;;;33.10;70.80;;;;;;5128053;28;20373;-89
2021/12/26 01:24:55;;;;;;;9.50;3.15;;;33.10;66.60;;;;;;5127401;28;20373;-91
2021/12/26 01:27:24;;;;;;;8.38;3.22;;;33.60;64.00;;;;;;5129680;27;20449;-89
2021/12/26 01:29:53;;;;;;;7.30;3.05;;;33.60;64.70;;;;;;5133234;27;21064;-88
2021/12/26 01:32:21;;;;;;;7.35;3.05;;;33.20;65.00;;;;;;5133381;27;20369;-90
2021/12/26 01:34:48;;;;;;;9.73;3.40;;;32.50;66.20;;;;;;5131322;27;20468;-88
2021/12/26 01:37:16;;;;;;;11.27;3.45;;;31.40;69.80;;;;;;5131053;27;20384;-89
2021/12/26 01:39:43;;;;;;;7.75;3.25;;;31.30;70.20;;;;;;5134632;27;20396;-88
2021/12/26 01:42:11;;;;;;;9.97;3.37;;;31.20;69.70;;;;;;5130904;27;20439;-88
2021/12/26 01:44:40;;;;;;;11.95;3.20;;;30.90;71.10;;;;;;5131090;27;20369;-89
2021/12/26 01:47:09;;;;;;;8.83;3.13;;;30.80;71.10;;;;;;5130894;27;20455;-91
2021/12/26 01:49:36;;;;;;;9.97;3.23;;;30.50;72.40;;;;;;5131261;27;20373;-90
2021/12/26 01:52:05;;;;;;;8.68;3.25;;;30.60;72.70;;;;;;5130724;27;20376;-89
2021/12/26 01:54:43;;;;;;;9.68;3.17;;;30.80;73.80;;;;;;5113484;27;20373;-89
2021/12/26 01:57:11;;;;;;;7.30;2.90;;;30.90;72.80;;;;;;5130036;27;20387;-89
2021/12/26 01:59:40;;;;;;;8.88;3.20;;;30.90;73.10;;;;;;5130553;27;20397;-89
2021/12/26 02:02:09;;;;;;;7.70;3.08;;;31.00;71.40;;;;;;5131007;27;20783;-89
2021/12/26 02:04:40;;;;;;;6.05;2.88;;;31.20;71.00;;;;;;5130546;27;20396;-88
2021/12/26 02:07:10;;;;;;;7.50;2.90;;;32.10;69.80;;;;;;5133861;27;20444;-90
2021/12/26 02:09:37;;;;;;;8.53;2.90;;;33.30;64.90;;;;;;5135036;27;20395;-91
2021/12/26 02:12:06;;;;;;;7.30;2.80;;;34.10;61.80;;;;;;5119663;27;20759;-90
2021/12/26 02:14:33;;;;;;;8.18;2.83;;;34.50;60.90;;;;;;5130958;27;20374;-90
2021/12/26 02:17:00;;;;;;;7.55;2.90;;;34.90;59.10;;;;;;5130234;27;20784;-89
2021/12/26 02:19:27;;;;;;;9.07;2.80;;;35.10;58.40;;;;;;5130545;27;20397;-92
2021/12/26 02:25:24;;;;;;;9.70;2.95;;;35.30;57.10;;;;;;5128398;27;20369;-90
2021/12/26 02:30:13;;;;;;;6.78;2.80;;;35.50;55.60;;;;;;5127094;27;20383;-89
2021/12/26 02:32:40;;;;;;;5.90;2.50;;;34.90;55.90;;;;;;5126756;27;20759;-89
2021/12/26 02:35:08;;;;;;;8.02;2.67;;;34.10;57.30;;;;;;5129051;27;20459;-88
2021/12/26 02:37:35;;;;;;;7.88;2.90;;;33.40;59.30;;;;;;5129290;27;20793;-87
2021/12/26 02:40:04;;;;;;;8.93;3.08;;;33.00;61.10;;;;;;5128196;27;20993;-87
2021/12/26 02:42:31;;;;;;;10.52;2.90;;;32.20;62.60;;;;;;5129250;27;20397;-89
2021/12/26 02:44:58;;;;;;;10.55;3.20;;;31.40;65.40;;;;;;5129216;27;20807;-88
2021/12/26 02:47:31;;;;;;;7.63;2.88;;;31.00;67.20;;;;;;5133581;27;20817;-89
2021/12/26 02:50:00;;;;;;;8.60;3.17;;;30.80;69.80;;;;;;5129668;27;20471;-88
2021/12/26 02:52:28;;;;;;;8.23;2.80;;;30.70;70.00;;;;;;5137689;27;20361;-88
2021/12/26 02:54:58;;;;;;;8.43;3.10;;;30.70;70.20;;;;;;5150063;27;20385;-88
2021/12/26 02:57:25;;;;;;;7.63;3.03;;;30.40;71.70;;;;;;5137975;27;20851;-88
2021/12/26 02:59:52;;;;;;;8.68;3.45;;;30.10;71.90;;;;;;5130270;27;20407;-89
2021/12/26 03:02:19;;;;;;;9.50;4.00;;;29.90;72.80;;;;;;5129343;27;20375;-88
2021/12/26 03:04:46;;;;;;;11.52;4.82;;;29.60;73.80;;;;;;5129242;27;20452;-91
2021/12/26 03:07:13;;;;;;;10.23;3.72;;;29.30;75.50;;;;;;5128852;27;20430;-89
2021/12/26 03:09:46;;;;;;;13.13;5.88;;;29.00;76.70;;;;;;5128011;27;20388;-89
2021/12/26 03:12:13;;;;;;;10.68;4.53;;;28.70;77.70;;;;;;5129193;27;20365;-88
2021/12/26 03:14:41;;;;;;;10.27;4.30;;;28.50;79.20;;;;;;5129860;27;20869;-90
2021/12/26 03:17:08;;;;;;;9.32;3.60;;;28.30;79.70;;;;;;5128944;27;20385;-89
2021/12/26 03:19:37;;;;;;;10.10;3.40;;;28.20;81.50;;;;;;5128826;27;20465;-92
2021/12/26 03:22:05;;;;;;;10.90;3.97;;;28.00;81.40;;;;;;5129087;27;20452;-90
2021/12/26 03:24:34;;;;;;;12.23;3.80;;;27.80;84.00;;;;;;5128191;27;20434;-93
2021/12/26 03:27:05;;;;;;;10.07;3.78;;;27.60;86.20;;;;;;5128315;27;20733;-87
2021/12/26 03:29:33;;;;;;;12.00;3.60;;;27.50;87.60;;;;;;5128164;27;20381;-91
2021/12/26 03:32:00;;;;;;;9.82;3.10;;;27.40;88.40;;;;;;5127959;27;20365;-91
2021/12/26 03:34:27;;;;;;;9.57;3.40;;;27.30;90.00;;;;;;5127576;27;20467;-91
2021/12/26 03:36:56;;;;;;;8.05;3.17;;;27.10;90.60;;;;;;5125667;27;20367;-90
2021/12/26 03:39:23;;;;;;;11.00;3.30;;;26.90;91.20;;;;;;5127252;27;20405;-90
2021/12/26 03:41:51;;;;;;;7.72;2.90;;;26.60;91.90;;;;;;5127894;27;20871;-90
2021/12/26 03:44:21;;;;;;;8.07;3.22;;;26.70;92.30;;;;;;5120460;27;20373;-88
2021/12/26 03:46:48;;;;;;;8.73;3.03;;;26.70;92.90;;;;;;5121026;27;20974;-87
2021/12/26 03:49:15;;;;;;;9.43;2.90;;;26.80;93.30;;;;;;5119545;27;20381;-90
2021/12/26 03:51:42;;;;;;;11.40;4.22;;;26.60;93.50;;;;;;5120441;27;20371;-90
2021/12/26 03:54:09;;;;;;;10.20;4.30;;;26.60;93.60;;;;;;5121000;27;20384;-90
2021/12/26 03:56:36;;;;;;;10.15;4.05;;;26.60;93.50;;;;;;5124795;27;20373;-91
2021/12/26 03:59:04;;;;;;;11.77;4.35;;;26.60;93.60;;;;;;5127100;27;20400;-89
2021/12/26 04:01:31;;;;;;;29.63;13.10;;;26.60;94.00;;;;;;5120964;27;20375;-87
2021/12/26 04:03:58;;;;;;;10.13;4.47;;;26.50;94.60;;;;;;5128169;27;20424;-87
2021/12/26 04:06:25;;;;;;;10.67;4.10;;;26.40;94.80;;;;;;5127340;27;20380;-87
2021/12/26 04:08:52;;;;;;;12.27;3.40;;;26.30;95.40;;;;;;5127586;27;20389;-88
2021/12/26 04:11:19;;;;;;;9.90;2.80;;;26.20;95.70;;;;;;5109656;27;20372;-89
2021/12/26 04:13:46;;;;;;;8.57;3.10;;;26.20;95.80;;;;;;5127508;27;20792;-90
2021/12/26 04:16:13;;;;;;;9.87;3.10;;;26.10;96.20;;;;;;5127232;28;20380;-87
2021/12/26 04:18:41;;;;;;;11.23;3.00;;;26.10;96.80;;;;;;5127626;28;20388;-88
2021/12/26 04:21:08;;;;;;;9.95;2.85;;;26.10;97.10;;;;;;5126966;28;20373;-87
2021/12/26 04:23:35;;;;;;;15.10;3.28;;;26.30;96.80;;;;;;5127728;27;20434;-87
2021/12/26 04:26:03;;;;;;;9.70;3.00;;;26.40;96.50;;;;;;5127038;28;20384;-87
2021/12/26 04:28:30;;;;;;;6.93;2.80;;;26.40;96.10;;;;;;5127679;27;20868;-90
2021/12/26 04:30:58;;;;;;;7.68;2.88;;;26.50;96.10;;;;;;5127226;28;20872;-89
2021/12/26 04:33:25;;;;;;;7.78;2.90;;;26.50;96.40;;;;;;5127656;28;20405;-88
2021/12/26 04:35:52;;;;;;;6.85;2.60;;;26.60;96.10;;;;;;5127406;28;20384;-90
2021/12/26 04:38:20;;;;;;;7.05;2.80;;;26.60;95.90;;;;;;5127307;27;20373;-89
2021/12/26 04:40:47;;;;;;;6.88;2.60;;;26.60;96.10;;;;;;5126914;27;20407;-89
2021/12/26 04:43:15;;;;;;;8.10;2.70;;;26.50;95.70;;;;;;5127622;27;20387;-88
2021/12/26 04:45:42;;;;;;;4.60;2.30;;;26.60;95.70;;;;;;5127321;27;20373;-87
2021/12/26 04:48:09;;;;;;;8.30;2.80;;;26.60;96.00;;;;;;5108738;28;20372;-88
2021/12/26 04:50:37;;;;;;;6.20;2.60;;;26.90;95.80;;;;;;5127457;28;20797;-87
2021/12/26 04:53:04;;;;;;;5.85;2.53;;;27.30;94.60;;;;;;5106950;28;20745;-88
2021/12/26 04:55:32;;;;;;;6.70;2.70;;;27.90;93.30;;;;;;5088695;28;21209;-88
2021/12/26 04:57:59;;;;;;;5.80;2.55;;;28.50;92.20;;;;;;5129246;27;20741;-88
2021/12/26 05:00:28;;;;;;;6.47;2.53;;;29.10;90.80;;;;;;5127278;27;20397;-87
2021/12/26 05:02:58;;;;;;;7.32;2.60;;;29.70;89.10;;;;;;5129147;27;20797;-88
2021/12/26 05:05:28;;;;;;;7.20;2.40;;;30.70;86.60;;;;;;5131314;27;20482;-89
2021/12/26 05:07:56;;;;;;;8.23;3.25;;;31.40;79.50;;;;;;5130517;27;20727;-88
2021/12/26 05:10:28;;;;;;;5.18;2.72;;;31.50;77.00;;;;;;5112658;27;20385;-89
2021/12/26 05:12:57;;;;;;;17.13;8.27;;;31.70;74.20;;;;;;5130913;27;20381;-90
2021/12/26 05:15:26;;;;;;;10.23;4.60;;;31.00;76.00;;;;;;5131077;27;20377;-90
2021/12/26 05:17:54;;;;;;;15.35;7.00;;;30.50;77.90;;;;;;5130711;27;20880;-88
2021/12/26 05:20:22;;;;;;;7.57;3.70;;;30.00;79.50;;;;;;5112876;27;20753;-87
2021/12/26 05:22:51;;;;;;;10.10;4.00;;;29.70;81.10;;;;;;5131867;27;20380;-89
2021/12/26 05:25:19;;;;;;;12.10;5.68;;;29.30;82.60;;;;;;5131472;27;21346;-88
2021/12/26 05:27:46;;;;;;;14.10;7.00;;;28.80;84.70;;;;;;5131802;27;20376;-88
2021/12/26 05:30:17;;;;;;;11.50;4.00;;;28.20;88.20;;;;;;5131678;27;20403;-87
2021/12/26 05:32:45;;;;;;;11.75;4.10;;;27.80;90.00;;;;;;5131217;27;20377;-89
2021/12/26 05:35:13;;;;;;;10.35;4.22;;;27.30;91.30;;;;;;5136072;27;20381;-91
2021/12/26 05:37:41;;;;;;;11.63;4.40;;;27.00;92.70;;;;;;5134905;27;20380;-89
2021/12/26 05:40:10;;;;;;;14.63;4.88;;;26.80;93.60;;;;;;5130587;27;20435;-89
2021/12/26 05:42:38;;;;;;;15.07;4.55;;;26.50;94.50;;;;;;5112326;27;20380;-91
2021/12/26 05:45:08;;;;;;;16.40;5.20;;;26.20;95.40;;;;;;5130901;27;20857;-89
2021/12/26 05:47:35;;;;;;;16.25;5.30;;;26.00;96.60;;;;;;5130114;27;20384;-90
2021/12/26 05:50:04;;;;;;;14.43;5.07;;;25.70;97.30;;;;;;5130457;27;20397;-90
2021/12/26 05:52:32;;;;;;;14.50;5.05;;;25.60;98.00;;;;;;5130481;27;20373;-89
2021/12/26 05:54:59;;;;;;;15.50;5.10;;;25.40;98.50;;;;;;5130114;27;20381;-91
2021/12/26 05:57:26;;;;;;;16.77;5.17;;;25.40;99.00;;;;;;5130399;27;20407;-89
2021/12/26 05:59:53;;;;;;;17.67;5.57;;;25.40;99.60;;;;;;5130341;27;20392;-90
2021/12/26 06:02:20;;;;;;;14.98;5.00;;;25.40;99.90;;;;;;5130582;27;20889;-89
2021/12/26 06:04:47;;;;;;;18.15;5.07;;;25.40;99.80;;;;;;5133482;27;20385;-89
2021/12/26 06:07:14;;;;;;;20.35;5.18;;;25.40;99.80;;;;;;5131595;27;20377;-88
2021/12/26 06:09:41;;;;;;;13.27;4.82;;;25.30;99.60;;;;;;5134077;27;20494;-89
2021/12/26 06:12:09;;;;;;;15.57;5.25;;;25.20;99.90;;;;;;5133189;27;20452;-91
2021/12/26 06:14:36;;;;;;;16.08;5.60;;;25.00;99.90;;;;;;5130324;27;20369;-89
2021/12/26 06:17:03;;;;;;;13.55;5.22;;;24.80;99.90;;;;;;5130492;27;20920;-89
2021/12/26 06:19:30;;;;;;;18.93;5.80;;;24.70;99.90;;;;;;5131208;27;20393;-89
2021/12/26 06:21:57;;;;;;;15.57;5.80;;;24.50;99.90;;;;;;5131871;27;20377;-89
2021/12/26 06:24:25;;;;;;;16.23;5.95;;;24.40;99.90;;;;;;5141825;27;20380;-89
2021/12/26 06:26:52;;;;;;;17.20;5.63;;;24.10;99.90;;;;;;5149596;27;20365;-87
2021/12/26 06:29:19;;;;;;;14.70;5.80;;;23.90;99.90;;;;;;5142552;27;20478;-90
2021/12/26 06:31:46;;;;;;;13.93;5.72;;;23.70;99.90;;;;;;5131508;27;20476;-88
2021/12/26 06:34:14;;;;;;;22.40;5.97;;;23.60;99.90;;;;;;5111634;27;20377;-90
2021/12/26 06:36:42;;;;;;;14.32;6.03;;;23.30;99.90;;;;;;5129937;27;20385;-89
2021/12/26 06:39:09;;;;;;;20.55;6.65;;;23.00;99.90;;;;;;5129712;27;20508;-89
2021/12/26 06:41:38;;;;;;;13.70;6.55;;;22.90;99.90;;;;;;5129049;27;20854;-92
2021/12/26 06:44:09;;;;;;;13.88;7.10;;;22.80;99.90;;;;;;5129104;27;20396;-90
2021/12/26 06:46:37;;;;;;;10.82;7.57;;;22.70;99.90;;;;;;5129338;27;20458;-88
2021/12/26 06:49:05;;;;;;;11.32;7.93;;;22.60;99.90;;;;;;5128438;27;20384;-90
2021/12/26 06:51:32;;;;;;;9.68;7.47;;;22.60;99.90;;;;;;5118555;27;20406;-88
2021/12/26 06:54:00;;;;;;;8.93;7.30;;;22.60;99.90;;;;;;5125021;27;20912;-89
2021/12/26 06:56:27;;;;;;;11.05;7.15;;;22.60;99.90;;;;;;5120358;27;20948;-90
2021/12/26 06:58:54;;;;;;;8.73;6.57;;;22.60;99.90;;;;;;5128516;27;20442;-91
2021/12/26 07:01:21;;;;;;;6.72;4.75;;;22.70;99.90;;;;;;5129371;27;20372;-88
2021/12/26 07:03:48;;;;;;;6.70;4.05;;;22.60;99.90;;;;;;5123910;27;20437;-84
2021/12/26 07:06:15;;;;;;;5.95;3.72;;;22.60;99.90;;;;;;5127346;27;20376;-85
2021/12/26 07:08:42;;;;;;;4.43;3.13;;;22.50;99.90;;;;;;5127883;27;20458;-83
2021/12/26 07:11:09;;;;;;;4.30;2.60;;;22.50;99.90;;;;;;5118995;27;20412;-93
2021/12/26 07:13:36;;;;;;;2.67;2.13;;;22.40;99.90;;;;;;5129387;27;20469;-81
2021/12/26 07:16:04;;;;;;;2.07;1.50;;;22.50;99.90;;;;;;5128567;27;20357;-81
2021/12/26 07:18:31;;;;;;;2.42;1.60;;;22.50;99.90;;;;;;5128111;27;20387;-85
2021/12/26 07:20:58;;;;;;;1.65;1.33;;;22.50;99.90;;;;;;5128424;27;20378;-83
2021/12/26 07:23:25;;;;;;;3.55;1.70;;;22.40;99.90;;;;;;5127957;27;20383;-81
2021/12/26 07:25:52;;;;;;;2.13;1.30;;;22.40;99.90;;;;;;5128029;27;20377;-85
2021/12/26 07:28:19;;;;;;;1.75;1.10;;;22.30;99.90;;;;;;5109074;27;20372;-81
2021/12/26 07:30:46;;;;;;;1.00;0.90;;;22.30;99.90;;;;;;5127890;27;20384;-88
2021/12/26 07:33:13;;;;;;;1.30;0.87;;;22.30;99.90;;;;;;5127890;27;20392;-85
2021/12/26 07:35:41;;;;;;;0.90;0.70;;;22.10;99.90;;;;;;5128191;27;20381;-83
2021/12/26 07:38:08;;;;;;;1.10;0.70;;;22.00;99.90;;;;;;5128232;27;20380;-91
2021/12/26 07:40:35;;;;;;;0.55;0.55;;;21.80;99.90;;;;;;5127839;27;20741;-88
2021/12/26 07:43:02;;;;;;;1.00;0.82;;;21.70;99.90;;;;;;5128621;27;20942;-84
2021/12/26 07:45:29;;;;;;;0.90;0.70;;;21.60;99.90;;;;;;5127861;27;20416;-84
2021/12/26 07:47:56;;;;;;;0.50;0.50;;;21.40;99.90;;;;;;5127490;27;20445;-85
2021/12/26 07:50:23;;;;;;;1.30;0.60;;;21.40;99.90;;;;;;5127990;27;20421;-85
2021/12/26 07:52:52;;;;;;;0.80;0.50;;;21.40;99.90;;;;;;5127488;27;20392;-83
2021/12/26 07:55:20;;;;;;;0.70;0.40;;;21.40;99.90;;;;;;5126600;27;20376;-83
2021/12/26 07:57:50;;;;;;;1.65;0.45;;;21.30;99.90;;;;;;5127474;27;20415;-83
2021/12/26 08:00:19;;;;;;;0.40;0.40;;;21.20;99.90;;;;;;5127377;27;20405;-83
2021/12/26 08:02:46;;;;;;;1.00;0.30;;;21.20;99.90;;;;;;5126977;27;20399;-84
2021/12/26 08:05:15;;;;;;;0.50;0.40;;;21.20;99.90;;;;;;5127475;27;20957;-82
2021/12/26 08:07:42;;;;;;;0.30;0.30;;;21.10;99.90;;;;;;5127506;27;20361;-83
2021/12/26 08:10:10;;;;;;;0.40;0.40;;;21.00;99.90;;;;;;5127607;27;20441;-85
2021/12/26 08:12:37;;;;;;;0.90;0.45;;;21.00;99.90;;;;;;5127517;27;20912;-87
2021/12/26 08:15:05;;;;;;;0.65;0.50;;;21.00;99.90;;;;;;5107135;28;20374;-87
2021/12/26 08:17:32;;;;;;;0.30;0.30;;;21.10;99.90;;;;;;5087981;28;20378;-84
2021/12/26 08:19:59;;;;;;;1.50;0.50;;;21.00;99.90;;;;;;5118032;27;20413;-83
2021/12/26 08:22:27;;;;;;;1.17;0.40;;;21.00;99.90;;;;;;5126859;28;20377;-83
2021/12/26 08:24:54;;;;;;;0.50;0.50;;;21.10;99.90;;;;;;5126932;28;20389;-83
2021/12/26 08:27:21;;;;;;;0.82;0.40;;;21.10;99.90;;;;;;5126926;27;20369;-83
2021/12/26 08:29:48;;;;;;;0.47;0.47;;;21.10;99.90;;;;;;5126930;28;20381;-83
2021/12/26 08:32:17;;;;;;;0.52;0.40;;;21.10;99.90;;;;;;5127099;27;20732;-85
2021/12/26 08:34:45;;;;;;;0.80;0.50;;;21.10;99.90;;;;;;5126544;27;20389;-87
2021/12/26 08:37:13;;;;;;;0.55;0.55;;;21.20;99.90;;;;;;5128022;27;20433;-84
2021/12/26 08:39:43;;;;;;;0.43;0.43;;;21.20;99.90;;;;;;5130325;27;21024;-84
2021/12/26 08:42:11;;;;;;;1.10;0.53;;;21.20;99.90;;;;;;5130906;27;20382;-84
2021/12/26 08:44:39;;;;;;;1.40;0.68;;;21.20;99.90;;;;;;5130851;27;20384;-85
2021/12/26 08:47:08;;;;;;;0.80;0.47;;;21.20;99.90;;;;;;5130631;27;20786;-84
2021/12/26 08:49:35;;;;;;;1.10;0.60;;;21.20;99.90;;;;;;5130375;27;20456;-83
2021/12/26 08:52:02;;;;;;;1.00;0.50;;;21.10;99.90;;;;;;5131036;27;20931;-83
2021/12/26 08:54:33;;;;;;;1.00;0.60;;;21.10;99.90;;;;;;5130541;27;20785;-83
2021/12/26 08:57:01;;;;;;;0.50;0.50;;;21.00;99.90;;;;;;5130631;27;20376;-83
2021/12/26 08:59:30;;;;;;;1.67;0.60;;;21.00;99.90;;;;;;5130414;27;20416;-84
2021/12/26 09:02:03;;;;;;;1.55;0.90;;;21.00;99.90;;;;;;5112013;27;20416;-83
2021/12/26 09:04:30;;;;;;;6.00;1.02;;;21.00;99.90;;;;;;5129997;27;20381;-84
2021/12/26 09:06:57;;;;;;;2.42;1.10;;;21.00;99.90;;;;;;5131133;27;20369;-83
2021/12/26 09:09:27;;;;;;;2.42;1.20;;;21.00;99.90;;;;;;5130398;27;20377;-82
2021/12/26 09:11:54;;;;;;;2.55;1.08;;;20.90;99.90;;;;;;5129948;27;20393;-82
2021/12/26 09:14:21;;;;;;;2.72;1.10;;;20.80;99.90;;;;;;5130404;27;20396;-82
2021/12/26 09:16:48;;;;;;;3.75;1.20;;;20.70;99.90;;;;;;5129832;27;20473;-82
2021/12/26 09:19:16;;;;;;;5.50;1.50;;;20.70;99.90;;;;;;5110907;27;20756;-83
2021/12/26 09:21:43;;;;;;;5.20;1.48;;;20.60;99.90;;;;;;5130670;27;20693;-87
2021/12/26 09:24:10;;;;;;;4.45;1.35;;;20.50;99.90;;;;;;5111049;27;20465;-82
2021/12/26 09:26:37;;;;;;;4.10;1.20;;;20.60;99.90;;;;;;5130132;27;20855;-83
2021/12/26 09:29:04;;;;;;;5.50;1.50;;;20.60;99.90;;;;;;5111558;27;20519;-85
2021/12/26 09:31:31;;;;;;;7.65;1.50;;;20.60;99.90;;;;;;5129908;27;20950;-83
2021/12/26 09:33:59;;;;;;;5.80;1.60;;;20.60;99.90;;;;;;5111116;27;20772;-85
2021/12/26 09:36:26;;;;;;;5.57;1.52;;;20.60;99.90;;;;;;5129595;27;20476;-84
2021/12/26 09:38:53;;;;;;;6.78;1.50;;;20.60;99.90;;;;;;5129094;27;20426;-84
2021/12/26 09:41:20;;;;;;;4.07;1.55;;;20.70;99.90;;;;;;5129785;27;20468;-83
2021/12/26 09:43:47;;;;;;;7.05;1.70;;;20.70;99.90;;;;;;5129429;27;20381;-83
2021/12/26 09:46:14;;;;;;;4.97;1.60;;;20.60;99.90;;;;;;5129697;27;20376;-83
2021/12/26 09:48:41;;;;;;;8.43;1.60;;;20.70;99.90;;;;;;5129228;27;20369;-85
2021/12/26 09:51:08;;;;;;;9.80;1.63;;;20.70;99.90;;;;;;5128833;27;20392;-83
2021/12/26 09:53:41;;;;;;;9.55;1.95;;;20.70;99.90;;;;;;5130160;27;20369;-84
2021/12/26 09:56:10;;;;;;;10.43;1.90;;;20.60;99.90;;;;;;5111684;27;20395;-83
2021/12/26 09:59:04;;;;;;;8.80;1.90;;;20.50;99.90;;;;;;5130002;27;20381;-82
2021/12/26 10:01:35;;;;;;;9.20;1.92;;;20.40;99.90;;;;;;5108392;28;20879;-85
2021/12/26 10:04:24;;;;;;;6.90;1.80;;;20.40;99.90;;;;;;5091351;27;20386;-83
2021/12/26 10:06:57;;;;;;;8.20;1.70;;;20.40;99.90;;;;;;5118039;27;20722;-83
2021/12/26 10:09:25;;;;;;;7.35;1.70;;;20.40;99.90;;;;;;5119676;27;20417;-82
2021/12/26 10:11:56;;;;;;;6.43;1.70;;;20.40;99.90;;;;;;5128954;27;20395;-83
2021/12/26 10:14:26;;;;;;;8.45;1.73;;;20.40;99.90;;;;;;5128955;27;20384;-83
2021/12/26 10:16:59;;;;;;;8.23;1.88;;;20.40;99.90;;;;;;5128772;27;20445;-83
2021/12/26 10:19:27;;;;;;;8.43;1.63;;;20.40;99.90;;;;;;5129066;27;20404;-83
2021/12/26 10:22:05;;;;;;;6.28;1.67;;;20.50;99.90;;;;;;5129830;27;20387;-83
2021/12/26 10:24:38;;;;;;;7.70;1.63;;;20.60;99.90;;;;;;5128707;27;20373;-84
2021/12/26 10:27:11;;;;;;;10.80;1.90;;;20.60;99.90;;;;;;5129790;27;20377;-83
2021/12/26 10:29:51;;;;;;;8.32;1.80;;;20.60;99.90;;;;;;5110354;27;20749;-83
2021/12/26 10:32:37;;;;;;;8.32;1.60;;;20.70;99.90;;;;;;5128935;27;20449;-82
2021/12/26 10:35:13;;;;;;;7.68;1.88;;;20.60;99.90;;;;;;5128025;27;20388;-82
2021/12/26 10:37:45;;;;;;;5.47;1.57;;;20.50;99.90;;;;;;5120032;27;20415;-83
2021/12/26 10:40:15;;;;;;;9.45;1.70;;;20.50;99.90;;;;;;5127381;27;20489;-84
2021/12/26 10:42:51;;;;;;;8.60;1.80;;;20.40;99.90;;;;;;5128496;27;20726;-82
2021/12/26 10:45:21;;;;;;;8.95;1.67;;;20.40;99.90;;;;;;5127488;27;20393;-83
2021/12/26 10:48:00;;;;;;;9.95;1.75;;;20.40;99.90;;;;;;5128732;27;20757;-82
2021/12/26 10:50:30;;;;;;;11.70;2.00;;;20.40;99.90;;;;;;5128740;27;20377;-83
2021/12/26 10:53:14;;;;;;;8.60;1.60;;;20.40;99.90;;;;;;5129232;27;20463;-82
2021/12/26 10:55:51;;;;;;;10.80;2.50;;;20.30;99.90;;;;;;5128240;27;20408;-83
2021/12/26 10:58:21;;;;;;;7.55;1.80;;;20.20;99.90;;;;;;5128461;27;20431;-82
2021/12/26 11:00:52;;;;;;;7.35;1.70;;;20.20;99.90;;;;;;5127143;27;20439;-83
2021/12/26 11:03:22;;;;;;;7.20;1.70;;;20.20;99.90;;;;;;5128332;27;20369;-84
2021/12/26 11:05:53;;;;;;;7.97;2.00;;;20.10;99.90;;;;;;5128102;27;20482;-84
2021/12/26 11:08:35;;;;;;;7.20;1.80;;;20.10;99.90;;;;;;5127862;27;20373;-83
2021/12/26 11:11:16;;;;;;;10.25;2.40;;;20.00;99.90;;;;;;5127167;27;20414;-83
2021/12/26 11:13:44;;;;;;;8.98;2.22;;;20.00;99.90;;;;;;5128438;27;20736;-83
2021/12/26 11:16:13;;;;;;;8.75;2.08;;;20.00;99.90;;;;;;5126685;27;20773;-84
2021/12/26 11:18:40;;;;;;;5.90;1.83;;;20.00;99.90;;;;;;5128407;27;20380;-83
2021/12/26 11:21:11;;;;;;;9.05;2.30;;;19.90;99.90;;;;;;5127836;27;20391;-83
2021/12/26 11:23:41;;;;;;;7.33;2.20;;;20.00;99.90;;;;;;5128249;27;20982;-81
2021/12/26 11:26:13;;;;;;;7.72;2.25;;;19.90;99.90;;;;;;5127468;27;21060;-82
2021/12/26 11:28:43;;;;;;;8.65;2.25;;;19.90;99.90;;;;;;5127725;27;20884;-84
2021/12/26 11:31:17;;;;;;;8.32;2.28;;;19.80;99.90;;;;;;5127715;27;20425;-83
2021/12/26 11:33:48;;;;;;;6.35;2.15;;;19.80;99.90;;;;;;5109815;27;20381;-83
2021/12/26 11:36:16;;;;;;;7.28;2.50;;;19.80;99.90;;;;;;5127702;27;20420;-87
2021/12/26 11:38:43;;;;;;;8.63;2.30;;;19.80;99.90;;;;;;5127843;27;20381;-83
2021/12/26 11:41:48;;;;;;;6.35;2.30;;;19.80;99.90;;;;;;5126731;27;20816;-82
2021/12/26 11:44:19;;;;;;;8.30;2.40;;;19.80;99.90;;;;;;5119971;27;20373;-82
2021/12/26 11:47:10;;;;;;;7.53;2.30;;;19.80;99.90;;;;;;5117846;27;20459;-81
2021/12/26 11:50:05;;;;;;;8.05;2.22;;;19.70;99.90;;;;;;5112528;27;20377;-82
2021/12/26 11:52:50;;;;;;;6.82;2.20;;;19.70;99.90;;;;;;5108763;27;20771;-82
2021/12/26 11:55:46;;;;;;;9.73;2.50;;;19.70;99.90;;;;;;5116717;27;20376;-82
2021/12/26 11:58:22;;;;;;;6.15;2.10;;;19.70;99.90;;;;;;5099459;27;20392;-83
2021/12/26 12:00:54;;;;;;;4.60;2.00;;;19.70;99.90;;;;;;5127369;27;20408;-82
2021/12/26 12:03:29;;;;;;;6.60;2.10;;;19.70;99.90;;;;;;5127483;27;20399;-82
2021/12/26 12:05:56;;;;;;;6.63;2.10;;;19.70;99.90;;;;;;5127595;27;20887;-83
2021/12/26 12:08:31;;;;;;;7.87;2.10;;;19.70;99.90;;;;;;5127065;27;20381;-82
2021/12/26 12:11:02;;;;;;;6.90;2.20;;;19.60;99.90;;;;;;5127350;27;20421;-82
2021/12/26 12:13:53;;;;;;;6.15;2.30;;;19.60;99.90;;;;;;5126852;27;20377;-82
2021/12/26 12:16:23;;;;;;;8.20;2.40;;;19.50;99.90;;;;;;5127283;27;20392;-82
2021/12/26 12:18:54;;;;;;;8.93;2.70;;;19.50;99.90;;;;;;5127423;28;20381;-82
2021/12/26 12:21:24;;;;;;;7.50;2.67;;;19.40;99.90;;;;;;5127357;27;20396;-82
2021/12/26 12:24:13;;;;;;;8.35;2.65;;;19.40;99.90;;;;;;5126435;28;20377;-83
2021/12/26 12:26:56;;;;;;;6.97;2.88;;;19.40;99.90;;;;;;5125872;28;20380;-82
2021/12/26 12:29:29;;;;;;;8.63;2.60;;;19.40;99.90;;;;;;5127472;27;20369;-83
2021/12/26 12:32:15;;;;;;;6.70;2.45;;;19.30;99.90;;;;;;5127160;27;20449;-83
2021/12/26 12:35:04;;;;;;;8.00;2.50;;;19.30;99.90;;;;;;5106915;28;20450;-82
2021/12/26 12:37:49;;;;;;;6.80;2.70;;;19.30;99.90;;;;;;5116391;28;20392;-84
2021/12/26 12:40:30;;;;;;;7.00;2.60;;;19.30;99.90;;;;;;5108323;27;20457;-82
2021/12/26 12:43:19;;;;;;;6.57;2.70;;;19.30;99.90;;;;;;5126758;27;20375;-84
2021/12/26 12:46:01;;;;;;;8.93;2.90;;;19.30;99.90;;;;;;5127129;28;20372;-83
2021/12/26 12:48:30;;;;;;;7.63;2.57;;;19.30;99.90;;;;;;5126848;27;20373;-83
2021/12/26 12:51:03;;;;;;;9.07;2.60;;;19.20;99.90;;;;;;5127238;28;20403;-82
2021/12/26 12:53:55;;;;;;;6.82;2.60;;;19.20;99.90;;;;;;5126904;27;20425;-85
2021/12/26 12:56:35;;;;;;;7.00;2.90;;;19.30;99.90;;;;;;5127285;27;20361;-82
2021/12/26 12:59:20;;;;;;;8.32;2.88;;;19.20;99.90;;;;;;5126612;27;20392;-83
2021/12/26 13:01:52;;;;;;;6.50;2.90;;;19.30;99.90;;;;;;5127006;27;20373;-82